Back to Top

Language: 

My Weather Underground Personal Weather Station Historical Data with Graphs...

Delerius Weather Station Historical Data
Daily Summary for January 6, 2018 Units:  English    Metric   Both
« Previous Day
Next Day »
Daily Weekly Monthly Yearly Custom
  High: Low: Average:
Temperature: 42.6 °F 34.5 °F 37.9 °F
Dew Point: 37.8 °F 32.0 °F 35.3 °F
Humidity: 96 % 76 % 90 %
Wind Speed: 12.0 mph 0.0 mph 3.7 mph
Wind Gust: 22.0 mph - -
Wind:- - SSE
Pressure: 30.30 in 29.54 in -
Precipitation: 0.04 in    
Historical Graphs
 
 
Tabular Data for January 6, 2018
Time Temperature Dew Point Pressure Wind Wind Speed Wind Gust Humidity Rainfall Rate (Hourly) solar Conditions
00:04 36.0 °F 34.9 °F 29.54 in NW 5.0 mph 8.0 mph 96 % 0.00 in 0 W/m2
00:05 36.0 °F 34.9 °F 29.54 in NW 5.0 mph 8.0 mph 96 % 0.00 in 0 W/m2
00:10 36.3 °F 35.3 °F 29.55 in NW 7.0 mph 10.0 mph 96 % 0.00 in 0 W/m2
00:14 36.7 °F 35.6 °F 29.55 in NW 7.0 mph 9.0 mph 96 % 0.00 in 0 W/m2
00:19 36.7 °F 35.4 °F 29.55 in NW 4.0 mph 6.0 mph 95 % 0.00 in 0 W/m2
00:20 36.9 °F 35.6 °F 29.54 in NW 3.0 mph 5.0 mph 95 % 0.00 in 0 W/m2
00:25 36.9 °F 35.6 °F 29.55 in WNW 3.0 mph 6.0 mph 95 % 0.00 in 0 W/m2
00:28 36.9 °F 35.6 °F 29.55 in WNW 3.0 mph 5.0 mph 95 % 0.00 in 0 W/m2
00:31 36.7 °F 35.4 °F 29.55 in WNW 1.0 mph 4.0 mph 95 % 0.00 in 0 W/m2
00:33 36.7 °F 35.4 °F 29.55 in Calm   3.0 mph 95 % 0.00 in 0 W/m2
00:38 36.7 °F 35.4 °F 29.55 in WNW 1.0 mph 5.0 mph 95 % 0.00 in 0 W/m2
00:39 36.7 °F 35.4 °F 29.55 in Calm   3.0 mph 95 % 0.00 in 0 W/m2
00:44 36.7 °F 35.4 °F 29.55 in Calm   1.0 mph 95 % 0.00 in 0 W/m2
00:49 36.7 °F 35.1 °F 29.56 in WNW 1.0 mph 2.0 mph 94 % 0.00 in 0 W/m2
00:54 36.7 °F 35.1 °F 29.56 in Calm   2.0 mph 94 % 0.00 in 0 W/m2
01:03 36.7 °F 35.4 °F 29.56 in NW 2.0 mph 5.0 mph 95 % 0.00 in 0 W/m2
01:07 36.9 °F 35.6 °F 29.56 in NW 1.0 mph 5.0 mph 95 % 0.00 in 0 W/m2
01:12 36.9 °F 35.6 °F 29.57 in NW 2.0 mph 5.0 mph 95 % 0.00 in 0 W/m2
01:13 36.9 °F 35.6 °F 29.57 in NW 2.0 mph 5.0 mph 95 % 0.00 in 0 W/m2
01:18 37.0 °F 35.5 °F 29.57 in WNW 2.0 mph 5.0 mph 94 % 0.00 in 0 W/m2
01:21 37.0 °F 35.5 °F 29.57 in WNW 2.0 mph 4.0 mph 94 % 0.00 in 0 W/m2
01:26 37.0 °F 35.5 °F 29.57 in Calm   3.0 mph 94 % 0.00 in 0 W/m2
01:31 37.0 °F 35.5 °F 29.57 in Calm     94 % 0.00 in 0 W/m2
01:36 37.0 °F 35.5 °F 29.57 in WNW 1.0 mph 3.0 mph 94 % 0.00 in 0 W/m2
01:41 37.0 °F 35.5 °F 29.58 in Calm   2.0 mph 94 % 0.00 in 0 W/m2
01:42 37.0 °F 35.5 °F 29.58 in Calm   2.0 mph 94 % 0.00 in 0 W/m2
01:47 37.0 °F 35.5 °F 29.58 in WNW 1.0 mph 2.0 mph 94 % 0.00 in 0 W/m2
01:49 37.0 °F 35.5 °F 29.58 in Calm   1.0 mph 94 % 0.00 in 0 W/m2
01:54 37.0 °F 35.5 °F 29.58 in Calm     94 % 0.00 in 0 W/m2
01:59 37.0 °F 35.5 °F 29.58 in Calm   1.0 mph 94 % 0.00 in 0 W/m2
02:04 37.0 °F 35.5 °F 29.59 in Calm   1.0 mph 94 % 0.00 in 0 W/m2
02:09 37.2 °F 35.7 °F 29.59 in WNW 3.0 mph 5.0 mph 94 % 0.00 in 0 W/m2
02:10 37.2 °F 35.7 °F 29.59 in WNW 3.0 mph 5.0 mph 94 % 0.00 in 0 W/m2
02:15 37.2 °F 35.7 °F 29.59 in Calm   1.0 mph 94 % 0.00 in 0 W/m2
02:20 37.4 °F 35.8 °F 29.59 in WNW 1.0 mph 3.0 mph 94 % 0.00 in 0 W/m2
02:21 37.4 °F 35.8 °F 29.59 in WNW 1.0 mph 3.0 mph 94 % 0.00 in 0 W/m2
02:26 37.6 °F 36.0 °F 29.59 in Calm     94 % 0.00 in 0 W/m2
02:31 37.6 °F 36.0 °F 29.60 in Calm     94 % 0.00 in 0 W/m2
02:36 37.6 °F 36.0 °F 29.60 in Calm   1.0 mph 94 % 0.00 in 0 W/m2
02:39 37.6 °F 36.0 °F 29.60 in Calm   2.0 mph 94 % 0.00 in 0 W/m2
02:45 37.8 °F 36.2 °F 29.60 in Calm     94 % 0.00 in 0 W/m2
02:50 37.6 °F 36.0 °F 29.61 in Calm     94 % 0.00 in 0 W/m2
02:55 37.6 °F 36.0 °F 29.60 in Calm   2.0 mph 94 % 0.00 in 0 W/m2
03:02 37.8 °F 36.2 °F 29.61 in Calm   1.0 mph 94 % 0.00 in 0 W/m2
03:04 37.8 °F 36.2 °F 29.61 in Calm   1.0 mph 94 % 0.00 in 0 W/m2
03:09 37.9 °F 36.4 °F 29.61 in NNW 3.0 mph 6.0 mph 94 % 0.00 in 0 W/m2
03:13 38.1 °F 36.5 °F 29.62 in NNW 1.0 mph 2.0 mph 94 % 0.00 in 0 W/m2
03:18 38.3 °F 36.7 °F 29.61 in NW 2.0 mph 6.0 mph 94 % 0.00 in 0 W/m2
03:27 38.5 °F 37.2 °F 29.62 in NE 1.0 mph 7.0 mph 95 % 0.00 in 0 W/m2
03:31 38.7 °F 37.4 °F 29.62 in NNE 1.0 mph 5.0 mph 95 % 0.00 in 0 W/m2
03:34 38.7 °F 37.4 °F 29.62 in North 4.0 mph 7.0 mph 95 % 0.00 in 0 W/m2
03:39 38.7 °F 37.1 °F 29.63 in North 2.0 mph 6.0 mph 94 % 0.00 in 0 W/m2
03:42 38.7 °F 37.1 °F 29.63 in North 1.0 mph 6.0 mph 94 % 0.00 in 0 W/m2
03:47 38.7 °F 37.1 °F 29.63 in North 1.0 mph 4.0 mph 94 % 0.00 in 0 W/m2
03:50 38.7 °F 37.1 °F 29.63 in North 1.0 mph 7.0 mph 94 % 0.00 in 0 W/m2
03:52 38.7 °F 37.1 °F 29.63 in NNW 2.0 mph 7.0 mph 94 % 0.00 in 0 W/m2
03:57 38.7 °F 37.1 °F 29.63 in North 3.0 mph 6.0 mph 94 % 0.00 in 0 W/m2
04:00 38.7 °F 37.1 °F 29.63 in North 4.0 mph 8.0 mph 94 % 0.00 in 0 W/m2
04:05 38.7 °F 37.1 °F 29.64 in North 4.0 mph 7.0 mph 94 % 0.00 in 0 W/m2
04:10 38.7 °F 37.4 °F 29.64 in North 1.0 mph 4.0 mph 95 % 0.00 in 0 W/m2
04:14 38.7 °F 37.4 °F 29.64 in North 4.0 mph 6.0 mph 95 % 0.00 in 0 W/m2
04:19 38.7 °F 37.4 °F 29.65 in NNW 2.0 mph 6.0 mph 95 % 0.00 in 0 W/m2
04:23 38.8 °F 37.5 °F 29.65 in NNW 1.0 mph 6.0 mph 95 % 0.00 in 0 W/m2
04:28 38.8 °F 37.5 °F 29.65 in North 3.0 mph 8.0 mph 95 % 0.00 in 0 W/m2
04:29 38.8 °F 37.5 °F 29.65 in NNW 3.0 mph 8.0 mph 95 % 0.00 in 0 W/m2
04:34 38.8 °F 37.5 °F 29.65 in North 2.0 mph 5.0 mph 95 % 0.00 in 0 W/m2
04:36 38.8 °F 37.5 °F 29.65 in North 2.0 mph 5.0 mph 95 % 0.00 in 0 W/m2
04:41 38.8 °F 37.5 °F 29.66 in North 1.0 mph 4.0 mph 95 % 0.00 in 0 W/m2
04:46 38.8 °F 37.5 °F 29.66 in NNE 3.0 mph 6.0 mph 95 % 0.00 in 0 W/m2
04:51 39.0 °F 37.7 °F 29.67 in North 1.0 mph 7.0 mph 95 % 0.00 in 0 W/m2
04:56 39.0 °F 37.7 °F 29.67 in ENE 3.0 mph 6.0 mph 95 % 0.00 in 0 W/m2
04:57 39.0 °F 37.7 °F 29.67 in ENE 4.0 mph 7.0 mph 95 % 0.00 in 0 W/m2
05:02 39.0 °F 37.7 °F 29.67 in North 7.0 mph 12.0 mph 95 % 0.00 in 0 W/m2
05:04 39.0 °F 37.7 °F 29.67 in NNE 6.0 mph 9.0 mph 95 % 0.00 in 0 W/m2
05:09 39.0 °F 37.7 °F 29.68 in NNE 3.0 mph 7.0 mph 95 % 0.00 in 0 W/m2
05:12 39.0 °F 37.7 °F 29.68 in ENE 1.0 mph 5.0 mph 95 % 0.00 in 0 W/m2
05:13 39.0 °F 37.7 °F 29.68 in Calm   4.0 mph 95 % 0.00 in 0 W/m2
05:19 39.0 °F 37.7 °F 29.69 in NE 3.0 mph 7.0 mph 95 % 0.00 in 0 W/m2
05:24 39.0 °F 37.7 °F 29.69 in ENE 3.0 mph 8.0 mph 95 % 0.00 in 0 W/m2
05:25 39.0 °F 37.7 °F 29.69 in NE 2.0 mph 6.0 mph 95 % 0.00 in 0 W/m2
05:30 39.0 °F 37.7 °F 29.70 in NNE 5.0 mph 9.0 mph 95 % 0.00 in 0 W/m2
05:32 39.0 °F 37.7 °F 29.69 in NE 4.0 mph 9.0 mph 95 % 0.00 in 0 W/m2
05:37 39.0 °F 37.7 °F 29.70 in North 3.0 mph 7.0 mph 95 % 0.00 in 0 W/m2
05:42 39.0 °F 37.7 °F 29.70 in NE 3.0 mph 7.0 mph 95 % 0.00 in 0 W/m2
05:47 39.0 °F 37.7 °F 29.70 in NNE 5.0 mph 8.0 mph 95 % 0.00 in 0 W/m2
05:52 39.0 °F 37.7 °F 29.71 in NNE 7.0 mph 13.0 mph 95 % 0.00 in 0 W/m2
05:58 39.0 °F 37.7 °F 29.72 in NE 2.0 mph 6.0 mph 95 % 0.00 in 0 W/m2
06:00 39.0 °F 37.7 °F 29.72 in ENE 1.0 mph 5.0 mph 95 % 0.00 in 0 W/m2
06:05 39.0 °F 37.7 °F 29.73 in NE 6.0 mph 10.0 mph 95 % 0.00 in 0 W/m2
06:10 39.0 °F 37.7 °F 29.73 in NE 5.0 mph 12.0 mph 95 % 0.00 in 0 W/m2
06:16 38.8 °F 37.5 °F 29.73 in ENE 11.0 mph 18.0 mph 95 % 0.01 in 0 W/m2
06:22 38.3 °F 36.7 °F 29.73 in ENE 7.0 mph 14.0 mph 94 % 0.02 in 0 W/m2
06:27 38.1 °F 36.5 °F 29.74 in ENE 8.0 mph 16.0 mph 94 % 0.02 in 0 W/m2
06:32 38.1 °F 36.5 °F 29.74 in ENE 8.0 mph 14.0 mph 94 % 0.03 in 0 W/m2
06:34 38.1 °F 36.5 °F 29.74 in ENE 8.0 mph 14.0 mph 94 % 0.03 in 0 W/m2
06:39 38.3 °F 36.7 °F 29.75 in ENE 6.0 mph 9.0 mph 94 % 0.03 in 0 W/m2
06:45 38.3 °F 36.7 °F 29.75 in ENE 4.0 mph 7.0 mph 94 % 0.04 in 0 W/m2
06:52 38.3 °F 37.0 °F 29.75 in NNE 3.0 mph 5.0 mph 95 % 0.04 in 0 W/m2
06:57 38.3 °F 37.0 °F 29.76 in North 1.0 mph 3.0 mph 95 % 0.04 in 0 W/m2
07:01 38.3 °F 37.0 °F 29.76 in NNE 2.0 mph 7.0 mph 95 % 0.04 in 0 W/m2
07:06 38.5 °F 37.2 °F 29.76 in NNE 2.0 mph 7.0 mph 95 % 0.04 in 0 W/m2
07:12 38.7 °F 37.4 °F 29.77 in North 4.0 mph 8.0 mph 95 % 0.04 in 0 W/m2
07:14 38.7 °F 37.4 °F 29.77 in North 4.0 mph 7.0 mph 95 % 0.03 in 0 W/m2
07:16 38.7 °F 37.4 °F 29.77 in NNE 3.0 mph 7.0 mph 95 % 0.02 in 0 W/m2
07:21 38.7 °F 37.4 °F 29.77 in NNW 1.0 mph 2.0 mph 95 % 0.02 in 0 W/m2
07:26 38.7 °F 37.4 °F 29.78 in North 1.0 mph 6.0 mph 95 % 0.02 in 0 W/m2
07:31 38.7 °F 37.4 °F 29.78 in North 5.0 mph 8.0 mph 95 % 0.01 in 0 W/m2
07:36 38.7 °F 37.4 °F 29.79 in NNW 3.0 mph 5.0 mph 95 % 0.01 in 0 W/m2
07:41 38.7 °F 37.4 °F 29.79 in North 4.0 mph 7.0 mph 95 % 0.01 in 0 W/m2
07:46 38.5 °F 37.2 °F 29.80 in North 2.0 mph 5.0 mph 95 % 0.00 in 0 W/m2
07:51 38.5 °F 37.2 °F 29.80 in NNW 2.0 mph 8.0 mph 95 % 0.00 in 0 W/m2
07:56 38.3 °F 37.0 °F 29.80 in North 5.0 mph 9.0 mph 95 % 0.00 in 0 W/m2
08:01 38.3 °F 37.0 °F 29.81 in North 6.0 mph 9.0 mph 95 % 0.00 in 0 W/m2
08:06 38.1 °F 36.8 °F 29.81 in NNE 6.0 mph 11.0 mph 95 % 0.00 in 0 W/m2
08:11 38.1 °F 36.8 °F 29.81 in NNE 6.0 mph 9.0 mph 95 % 0.00 in 0 W/m2
08:12 38.1 °F 36.5 °F 29.81 in NNE 4.0 mph 8.0 mph 94 % 0.00 in 0 W/m2
08:17 37.9 °F 36.4 °F 29.82 in NNE 5.0 mph 9.0 mph 94 % 0.00 in 0 W/m2
08:22 37.9 °F 36.4 °F 29.82 in NNE 3.0 mph 9.0 mph 94 % 0.00 in 0 W/m2
08:27 37.9 °F 36.4 °F 29.83 in North 5.0 mph 9.0 mph 94 % 0.00 in 5 W/m2
08:28 37.9 °F 36.4 °F 29.83 in NNW 4.0 mph 9.0 mph 94 % 0.00 in 5 W/m2
08:33 37.8 °F 36.2 °F 29.83 in NNE 2.0 mph 6.0 mph 94 % 0.00 in 5 W/m2
08:36 37.8 °F 36.2 °F 29.83 in North 4.0 mph 8.0 mph 94 % 0.00 in 5 W/m2
08:41 37.8 °F 36.2 °F 29.84 in North 4.0 mph 9.0 mph 94 % 0.00 in 7 W/m2
08:46 37.6 °F 36.0 °F 29.84 in NNW 4.0 mph 7.0 mph 94 % 0.00 in 7 W/m2
08:48 37.6 °F 36.0 °F 29.84 in NNW 5.0 mph 8.0 mph 94 % 0.00 in 5 W/m2
08:54 37.6 °F 36.0 °F 29.85 in NNW 4.0 mph 8.0 mph 94 % 0.00 in 7 W/m2
08:59 37.6 °F 36.0 °F 29.85 in North 5.0 mph 8.0 mph 94 % 0.00 in 11 W/m2
09:01 37.6 °F 36.0 °F 29.86 in North 3.0 mph 7.0 mph 94 % 0.00 in 12 W/m2
09:06 37.4 °F 35.8 °F 29.86 in North 5.0 mph 9.0 mph 94 % 0.00 in 18 W/m2
09:11 37.4 °F 35.8 °F 29.86 in North 3.0 mph 12.0 mph 94 % 0.00 in 18 W/m2
09:16 37.2 °F 35.4 °F 29.86 in North 5.0 mph 8.0 mph 93 % 0.00 in 23 W/m2
09:21 37.2 °F 35.4 °F 29.86 in North 5.0 mph 10.0 mph 93 % 0.00 in 28 W/m2
09:26 37.2 °F 35.4 °F 29.87 in NNE 4.0 mph 9.0 mph 93 % 0.00 in 28 W/m2
09:28 37.2 °F 35.4 °F 29.87 in North 5.0 mph 8.0 mph 93 % 0.00 in 30 W/m2
09:33 37.2 °F 35.4 °F 29.88 in North 3.0 mph 7.0 mph 93 % 0.00 in 26 W/m2
09:38 37.2 °F 35.4 °F 29.88 in NE 3.0 mph 12.0 mph 93 % 0.00 in 19 W/m2
09:43 37.4 °F 35.6 °F 29.89 in NNE 2.0 mph 5.0 mph 93 % 0.00 in 19 W/m2
09:48 37.6 °F 35.7 °F 29.89 in ENE 2.0 mph 4.0 mph 93 % 0.00 in 23 W/m2
09:54 37.6 °F 35.7 °F 29.89 in NE 4.0 mph 11.0 mph 93 % 0.00 in 32 W/m2
09:59 37.8 °F 35.9 °F 29.90 in NE 3.0 mph 8.0 mph 93 % 0.00 in 35 W/m2
10:04 37.9 °F 36.1 °F 29.90 in NNE 3.0 mph 6.0 mph 93 % 0.00 in 74 W/m2
10:09 38.1 °F 36.3 °F 29.90 in North 5.0 mph 13.0 mph 93 % 0.00 in 42 W/m2
10:12 38.1 °F 36.3 °F 29.91 in NNE 4.0 mph 10.0 mph 93 % 0.00 in 40 W/m2
10:17 38.3 °F 36.5 °F 29.91 in NNE 8.0 mph 14.0 mph 93 % 0.00 in 86 W/m2
10:22 38.5 °F 36.6 °F 29.92 in North 4.0 mph 10.0 mph 93 % 0.00 in 74 W/m2
10:27 38.5 °F 36.6 °F 29.92 in NE 6.0 mph 13.0 mph 93 % 0.00 in 56 W/m2
10:32 38.7 °F 36.8 °F 29.92 in NNE 2.0 mph 7.0 mph 93 % 0.00 in 40 W/m2
10:34 38.7 °F 36.8 °F 29.92 in NE 6.0 mph 15.0 mph 93 % 0.00 in 46 W/m2
10:39 38.7 °F 36.8 °F 29.92 in NE 4.0 mph 11.0 mph 93 % 0.00 in 79 W/m2
10:44 38.7 °F 36.8 °F 29.93 in NE 6.0 mph 10.0 mph 93 % 0.00 in 58 W/m2
10:49 38.8 °F 37.0 °F 29.93 in NE 7.0 mph 14.0 mph 93 % 0.00 in 83 W/m2
10:54 39.0 °F 37.2 °F 29.93 in NE 4.0 mph 10.0 mph 93 % 0.00 in 83 W/m2
10:59 39.2 °F 37.1 °F 29.93 in NE 3.0 mph 9.0 mph 92 % 0.00 in 74 W/m2
11:00 39.2 °F 37.3 °F 29.93 in ENE 4.0 mph 9.0 mph 93 % 0.00 in 76 W/m2
11:05 39.4 °F 37.2 °F 29.94 in ENE 8.0 mph 16.0 mph 92 % 0.00 in 56 W/m2
11:10 39.4 °F 37.2 °F 29.94 in ENE 12.0 mph 22.0 mph 92 % 0.00 in 62 W/m2
11:15 39.4 °F 37.0 °F 29.93 in ENE 6.0 mph 13.0 mph 91 % 0.00 in 65 W/m2
11:20 39.4 °F 37.0 °F 29.94 in NE 10.0 mph 16.0 mph 91 % 0.00 in 70 W/m2
11:26 39.6 °F 36.9 °F 29.94 in NE 7.0 mph 12.0 mph 90 % 0.00 in 98 W/m2
11:31 39.7 °F 37.0 °F 29.94 in ENE 1.0 mph 8.0 mph 90 % 0.00 in 183 W/m2
11:36 40.1 °F 37.4 °F 29.94 in North 7.0 mph 13.0 mph 90 % 0.00 in 267 W/m2
11:40 40.3 °F 37.6 °F 29.95 in NNE 7.0 mph 11.0 mph 90 % 0.00 in 262 W/m2
11:45 40.5 °F 37.8 °F 29.95 in North 5.0 mph 11.0 mph 90 % 0.00 in 120 W/m2
11:50 40.6 °F 37.7 °F 29.95 in NNE 5.0 mph 11.0 mph 89 % 0.00 in 90 W/m2
11:55 40.6 °F 37.7 °F 29.95 in NNE 7.0 mph 13.0 mph 89 % 0.00 in 81 W/m2
12:00 40.6 °F 37.7 °F 29.96 in NNE 4.0 mph 10.0 mph 89 % 0.00 in 160 W/m2
12:05 40.5 °F 37.5 °F 29.96 in NNE 4.0 mph 9.0 mph 89 % 0.00 in 72 W/m2
12:10 40.6 °F 37.7 °F 29.96 in North 2.0 mph 7.0 mph 89 % 0.00 in 98 W/m2
12:11 40.6 °F 37.7 °F 29.96 in North 3.0 mph 7.0 mph 89 % 0.00 in 98 W/m2
12:16 40.6 °F 37.7 °F 29.97 in North 3.0 mph 7.0 mph 89 % 0.00 in 62 W/m2
12:17 40.5 °F 37.5 °F 29.97 in North 3.0 mph 9.0 mph 89 % 0.00 in 62 W/m2
12:22 40.5 °F 37.5 °F 29.97 in North 3.0 mph 8.0 mph 89 % 0.00 in 54 W/m2
12:24 40.5 °F 37.5 °F 29.97 in NNE 2.0 mph 8.0 mph 89 % 0.00 in 65 W/m2
12:29 40.5 °F 37.5 °F 29.97 in North 3.0 mph 10.0 mph 89 % 0.00 in 116 W/m2
12:34 40.5 °F 37.5 °F 29.97 in NE 2.0 mph 7.0 mph 89 % 0.00 in 107 W/m2
12:40 40.5 °F 37.2 °F 29.97 in NE 5.0 mph 11.0 mph 88 % 0.00 in 98 W/m2
12:45 40.5 °F 36.9 °F 29.98 in ENE 2.0 mph 7.0 mph 87 % 0.00 in 95 W/m2
12:50 40.5 °F 36.6 °F 29.98 in NE 6.0 mph 11.0 mph 86 % 0.00 in 211 W/m2
12:55 40.8 °F 37.0 °F 29.98 in NE 7.0 mph 11.0 mph 86 % 0.00 in 204 W/m2
13:01 41.0 °F 36.8 °F 29.98 in NE 5.0 mph 11.0 mph 85 % 0.00 in 200 W/m2
13:02 41.0 °F 36.5 °F 29.98 in NE 6.0 mph 11.0 mph 84 % 0.00 in 221 W/m2
13:07 41.4 °F 36.9 °F 29.98 in NE 3.0 mph 7.0 mph 84 % 0.00 in 211 W/m2
13:12 41.5 °F 36.8 °F 29.98 in NNE 8.0 mph 15.0 mph 83 % 0.00 in 105 W/m2
13:17 41.7 °F 36.9 °F 29.98 in NNE 6.0 mph 10.0 mph 83 % 0.00 in 204 W/m2
13:21 41.7 °F 36.9 °F 29.99 in NNE 7.0 mph 13.0 mph 83 % 0.00 in 204 W/m2
13:27 42.1 °F 37.0 °F 29.99 in NE 6.0 mph 11.0 mph 82 % 0.00 in 192 W/m2
13:29 42.1 °F 37.0 °F 29.99 in NNE 5.0 mph 11.0 mph 82 % 0.00 in 192 W/m2
13:34 42.3 °F 36.8 °F 29.99 in NE 7.0 mph 13.0 mph 81 % 0.00 in 192 W/m2
13:39 42.4 °F 36.7 °F 29.99 in NE 7.0 mph 12.0 mph 80 % 0.00 in 185 W/m2
13:45 42.4 °F 36.4 °F 30.00 in NE 6.0 mph 15.0 mph 79 % 0.00 in 183 W/m2
13:48 42.4 °F 36.4 °F 29.99 in NE 7.0 mph 12.0 mph 79 % 0.00 in 174 W/m2
13:54 42.4 °F 35.7 °F 30.00 in NE 11.0 mph 19.0 mph 77 % 0.00 in 186 W/m2
13:57 42.6 °F 35.9 °F 30.00 in NE 9.0 mph 15.0 mph 77 % 0.00 in 102 W/m2
14:03 42.6 °F 35.9 °F 30.00 in NE 8.0 mph 15.0 mph 77 % 0.00 in 181 W/m2
14:05 42.6 °F 35.9 °F 30.00 in NE 9.0 mph 18.0 mph 77 % 0.00 in 185 W/m2
14:10 42.4 °F 35.4 °F 30.01 in NE 9.0 mph 16.0 mph 76 % 0.00 in 88 W/m2
14:15 42.3 °F 35.2 °F 30.01 in NE 9.0 mph 15.0 mph 76 % 0.00 in 104 W/m2
14:18 42.1 °F 35.1 °F 30.01 in NE 9.0 mph 16.0 mph 76 % 0.00 in 142 W/m2
14:24 42.1 °F 35.4 °F 30.01 in NE 8.0 mph 18.0 mph 77 % 0.00 in 132 W/m2
14:29 42.1 °F 35.4 °F 30.02 in NE 7.0 mph 14.0 mph 77 % 0.00 in 120 W/m2
14:34 42.1 °F 35.4 °F 30.02 in NE 6.0 mph 14.0 mph 77 % 0.00 in 98 W/m2
14:39 41.9 °F 35.5 °F 30.02 in NE 2.0 mph 9.0 mph 78 % 0.00 in 54 W/m2
14:44 41.7 °F 35.4 °F 30.03 in NNE 2.0 mph 6.0 mph 78 % 0.00 in 47 W/m2
14:45 41.9 °F 35.5 °F 30.03 in NNE 2.0 mph 6.0 mph 78 % 0.00 in 49 W/m2
14:50 41.7 °F 35.4 °F 30.03 in North 7.0 mph 11.0 mph 78 % 0.00 in 54 W/m2
14:55 41.7 °F 35.7 °F 30.04 in NNE 6.0 mph 16.0 mph 79 % 0.00 in 16 W/m2
15:00 41.5 °F 35.8 °F 30.04 in NE 7.0 mph 16.0 mph 80 % 0.00 in 21 W/m2
15:01 41.4 °F 35.7 °F 30.04 in NE 10.0 mph 16.0 mph 80 % 0.00 in 26 W/m2
15:06 40.8 °F 35.1 °F 30.04 in NE 9.0 mph 15.0 mph 80 % 0.00 in 32 W/m2
15:11 40.5 °F 35.4 °F 30.05 in NE 6.0 mph 10.0 mph 82 % 0.00 in 30 W/m2
15:16 40.3 °F 35.2 °F 30.05 in NNE 4.0 mph 8.0 mph 82 % 0.00 in 19 W/m2
15:17 40.3 °F 35.2 °F 30.06 in NNE 3.0 mph 8.0 mph 82 % 0.00 in 19 W/m2
15:20 40.1 °F 35.0 °F 30.06 in NE 3.0 mph 7.0 mph 82 % 0.00 in 18 W/m2
15:25 39.7 °F 35.0 °F 30.06 in NNE 3.0 mph 9.0 mph 83 % 0.00 in 18 W/m2
15:30 39.6 °F 34.8 °F 30.06 in ENE 2.0 mph 7.0 mph 83 % 0.00 in 16 W/m2
15:35 39.6 °F 34.8 °F 30.06 in NE 2.0 mph 6.0 mph 83 % 0.00 in 14 W/m2
15:41 39.4 °F 34.6 °F 30.07 in ENE 2.0 mph 6.0 mph 83 % 0.00 in 12 W/m2
15:46 39.0 °F 34.3 °F 30.07 in NE 1.0 mph 6.0 mph 83 % 0.00 in 11 W/m2
15:51 39.0 °F 34.6 °F 30.07 in Calm   2.0 mph 84 % 0.00 in 9 W/m2
15:56 38.8 °F 34.4 °F 30.07 in NNE 1.0 mph 6.0 mph 84 % 0.00 in 7 W/m2
16:01 38.7 °F 34.2 °F 30.07 in NNE 1.0 mph 5.0 mph 84 % 0.00 in 7 W/m2
16:06 38.7 °F 34.2 °F 30.07 in NE 1.0 mph 5.0 mph 84 % 0.00 in 5 W/m2
16:11 38.7 °F 34.5 °F 30.08 in NNW 2.0 mph 5.0 mph 85 % 0.00 in 0 W/m2
16:13 38.5 °F 34.4 °F 30.08 in North 1.0 mph 5.0 mph 85 % 0.00 in 0 W/m2
16:18 38.5 °F 34.4 °F 30.08 in NE 1.0 mph 5.0 mph 85 % 0.00 in 0 W/m2
16:19 38.5 °F 34.4 °F 30.08 in NNE 2.0 mph 11.0 mph 85 % 0.00 in 0 W/m2
16:24 38.3 °F 34.5 °F 30.08 in North 2.0 mph 5.0 mph 86 % 0.00 in 0 W/m2
16:28 38.3 °F 34.5 °F 30.08 in Calm   2.0 mph 86 % 0.00 in 0 W/m2
16:33 38.1 °F 34.3 °F 30.09 in NNE 1.0 mph 5.0 mph 86 % 0.00 in 0 W/m2
16:38 38.1 °F 34.3 °F 30.09 in North 3.0 mph 8.0 mph 86 % 0.00 in 0 W/m2
16:43 38.1 °F 34.3 °F 30.09 in North 5.0 mph 9.0 mph 86 % 0.00 in 0 W/m2
16:45 38.1 °F 34.3 °F 30.09 in NNE 4.0 mph 9.0 mph 86 % 0.00 in 0 W/m2
16:50 38.1 °F 34.3 °F 30.09 in NE 2.0 mph 7.0 mph 86 % 0.00 in 0 W/m2
16:55 37.9 °F 34.1 °F 30.10 in North 1.0 mph 5.0 mph 86 % 0.00 in 0 W/m2
17:00 37.9 °F 34.1 °F 30.10 in NNE 6.0 mph 8.0 mph 86 % 0.00 in 0 W/m2
17:05 37.9 °F 34.1 °F 30.10 in North 4.0 mph 8.0 mph 86 % 0.00 in 0 W/m2
17:11 37.8 °F 33.9 °F 30.11 in North 2.0 mph 6.0 mph 86 % 0.00 in 0 W/m2
17:13 37.8 °F 33.9 °F 30.11 in North 3.0 mph 7.0 mph 86 % 0.00 in 0 W/m2
17:14 37.8 °F 33.9 °F 30.11 in North 4.0 mph 8.0 mph 86 % 0.00 in 0 W/m2
17:19 37.6 °F 33.8 °F 30.11 in North 1.0 mph 5.0 mph 86 % 0.00 in 0 W/m2
17:24 37.6 °F 34.1 °F 30.12 in North 3.0 mph 9.0 mph 87 % 0.00 in 0 W/m2
17:29 37.6 °F 34.1 °F 30.12 in North 3.0 mph 7.0 mph 87 % 0.00 in 0 W/m2
17:33 37.6 °F 34.1 °F 30.12 in North 1.0 mph 6.0 mph 87 % 0.00 in 0 W/m2
17:38 37.4 °F 33.9 °F 30.13 in NNW 4.0 mph 7.0 mph 87 % 0.00 in 0 W/m2
17:40 37.2 °F 33.7 °F 30.13 in NNW 3.0 mph 7.0 mph 87 % 0.00 in 0 W/m2
17:45 37.0 °F 33.5 °F 30.13 in NNW 2.0 mph 7.0 mph 87 % 0.00 in 0 W/m2
17:46 37.0 °F 33.5 °F 30.13 in NNW 2.0 mph 7.0 mph 87 % 0.00 in 0 W/m2
17:49 37.0 °F 33.5 °F 30.14 in NNW 5.0 mph 11.0 mph 87 % 0.00 in 0 W/m2
17:51 37.0 °F 33.5 °F 30.14 in NNW 5.0 mph 11.0 mph 87 % 0.00 in 0 W/m2
18:01 36.9 °F 33.4 °F 30.15 in North 3.0 mph 6.0 mph 87 % 0.00 in 0 W/m2
18:04 36.9 °F 33.6 °F 30.15 in North 4.0 mph 8.0 mph 88 % 0.00 in 0 W/m2
18:09 36.7 °F 33.5 °F 30.15 in North 4.0 mph 8.0 mph 88 % 0.00 in 0 W/m2
18:15 36.7 °F 33.5 °F 30.15 in North 5.0 mph 10.0 mph 88 % 0.00 in 0 W/m2
18:19 36.7 °F 33.5 °F 30.16 in North 5.0 mph 8.0 mph 88 % 0.00 in 0 W/m2
18:24 36.7 °F 33.5 °F 30.16 in North 5.0 mph 9.0 mph 88 % 0.00 in 0 W/m2
18:29 36.5 °F 33.3 °F 30.16 in NNW 4.0 mph 7.0 mph 88 % 0.00 in 0 W/m2
18:34 36.3 °F 33.1 °F 30.17 in NNW 5.0 mph 8.0 mph 88 % 0.00 in 0 W/m2
18:39 36.1 °F 32.9 °F 30.17 in North 5.0 mph 8.0 mph 88 % 0.00 in 0 W/m2
18:43 36.1 °F 32.9 °F 30.17 in North 6.0 mph 10.0 mph 88 % 0.00 in 0 W/m2
18:48 36.1 °F 32.9 °F 30.18 in North 3.0 mph 9.0 mph 88 % 0.00 in 0 W/m2
18:54 36.3 °F 33.1 °F 30.18 in NNE 2.0 mph 6.0 mph 88 % 0.00 in 0 W/m2
18:59 36.1 °F 32.9 °F 30.18 in North 2.0 mph 7.0 mph 88 % 0.00 in 0 W/m2
19:01 36.1 °F 32.9 °F 30.19 in NNE 1.0 mph 5.0 mph 88 % 0.00 in 0 W/m2
19:06 36.1 °F 32.9 °F 30.19 in North 3.0 mph 6.0 mph 88 % 0.00 in 0 W/m2
19:08 36.1 °F 32.9 °F 30.19 in NNE 3.0 mph 8.0 mph 88 % 0.00 in 0 W/m2
19:13 36.1 °F 32.9 °F 30.19 in North 4.0 mph 9.0 mph 88 % 0.00 in 0 W/m2
19:18 36.1 °F 32.9 °F 30.18 in North 4.0 mph 7.0 mph 88 % 0.00 in 0 W/m2
19:23 36.1 °F 32.9 °F 30.19 in NNE 5.0 mph 7.0 mph 88 % 0.00 in 0 W/m2
19:26 36.1 °F 32.9 °F 30.19 in North 3.0 mph 7.0 mph 88 % 0.00 in 0 W/m2
19:31 36.0 °F 32.8 °F 30.19 in North 5.0 mph 11.0 mph 88 % 0.00 in 0 W/m2
19:36 36.0 °F 32.8 °F 30.19 in North 5.0 mph 9.0 mph 88 % 0.00 in 0 W/m2
19:41 36.0 °F 32.8 °F 30.20 in NNW 3.0 mph 6.0 mph 88 % 0.00 in 0 W/m2
19:42 36.0 °F 32.8 °F 30.20 in NNW 3.0 mph 6.0 mph 88 % 0.00 in 0 W/m2
19:47 35.8 °F 32.6 °F 30.20 in North 5.0 mph 8.0 mph 88 % 0.00 in 0 W/m2
19:52 35.8 °F 32.9 °F 30.20 in North 3.0 mph 6.0 mph 89 % 0.00 in 0 W/m2
19:57 35.6 °F 32.7 °F 30.20 in NNW 2.0 mph 6.0 mph 89 % 0.00 in 0 W/m2
20:02 35.4 °F 32.5 °F 30.21 in NNW 4.0 mph 7.0 mph 89 % 0.00 in 0 W/m2
20:03 35.4 °F 32.5 °F 30.21 in NNW 5.0 mph 7.0 mph 89 % 0.00 in 0 W/m2
20:08 35.2 °F 32.3 °F 30.21 in NNW 2.0 mph 8.0 mph 89 % 0.00 in 0 W/m2
20:13 35.2 °F 32.3 °F 30.21 in North 4.0 mph 8.0 mph 89 % 0.00 in 0 W/m2
20:18 35.2 °F 32.3 °F 30.21 in North 4.0 mph 8.0 mph 89 % 0.00 in 0 W/m2
20:21 35.2 °F 32.6 °F 30.21 in North 6.0 mph 10.0 mph 90 % 0.00 in 0 W/m2
20:26 35.2 °F 32.3 °F 30.22 in NNW 3.0 mph 7.0 mph 89 % 0.00 in 0 W/m2
20:31 35.2 °F 32.3 °F 30.22 in North 2.0 mph 5.0 mph 89 % 0.00 in 0 W/m2
20:36 35.1 °F 32.1 °F 30.22 in NNW 3.0 mph 6.0 mph 89 % 0.00 in 0 W/m2
20:41 34.9 °F 32.0 °F 30.23 in NNW 3.0 mph 7.0 mph 89 % 0.00 in 0 W/m2
20:43 34.9 °F 32.0 °F 30.23 in North 1.0 mph 7.0 mph 89 % 0.00 in 0 W/m2
20:48 34.9 °F 32.0 °F 30.23 in North 1.0 mph 4.0 mph 89 % 0.00 in 0 W/m2
20:50 34.9 °F 32.0 °F 30.23 in North 2.0 mph 7.0 mph 89 % 0.00 in 0 W/m2
20:55 35.1 °F 32.4 °F 30.24 in North 5.0 mph 9.0 mph 90 % 0.00 in 0 W/m2
20:56 35.1 °F 32.4 °F 30.24 in North 5.0 mph 9.0 mph 90 % 0.00 in 0 W/m2
21:01 35.1 °F 32.1 °F 30.24 in NNW 4.0 mph 10.0 mph 89 % 0.00 in 0 W/m2
21:02 35.1 °F 32.1 °F 30.24 in NNW 4.0 mph 10.0 mph 89 % 0.00 in 0 W/m2
21:07 35.1 °F 32.1 °F 30.24 in NNW 3.0 mph 6.0 mph 89 % 0.00 in 0 W/m2
21:12 34.9 °F 32.0 °F 30.24 in NNW 6.0 mph 9.0 mph 89 % 0.00 in 0 W/m2
21:17 35.1 °F 32.1 °F 30.25 in North 4.0 mph 7.0 mph 89 % 0.00 in 0 W/m2
21:23 35.1 °F 32.1 °F 30.25 in NNW 4.0 mph 8.0 mph 89 % 0.00 in 0 W/m2
21:28 35.1 °F 32.1 °F 30.25 in NNW 5.0 mph 9.0 mph 89 % 0.00 in 0 W/m2
21:33 35.1 °F 32.1 °F 30.25 in NNW 5.0 mph 7.0 mph 89 % 0.00 in 0 W/m2
21:35 35.1 °F 32.1 °F 30.25 in NNW 4.0 mph 7.0 mph 89 % 0.00 in 0 W/m2
21:40 35.1 °F 32.1 °F 30.26 in NNW 4.0 mph 9.0 mph 89 % 0.00 in 0 W/m2
21:46 35.1 °F 32.4 °F 30.26 in NNW 3.0 mph 9.0 mph 90 % 0.00 in 0 W/m2
21:50 34.9 °F 32.2 °F 30.26 in NNW 4.0 mph 8.0 mph 90 % 0.00 in 0 W/m2
21:55 35.1 °F 32.4 °F 30.26 in NNW 4.0 mph 9.0 mph 90 % 0.00 in 0 W/m2
21:58 35.1 °F 32.4 °F 30.26 in NNW 6.0 mph 9.0 mph 90 % 0.00 in 0 W/m2
22:03 35.1 °F 32.4 °F 30.27 in North 5.0 mph 9.0 mph 90 % 0.00 in 0 W/m2
22:08 35.1 °F 32.4 °F 30.27 in North 2.0 mph 6.0 mph 90 % 0.00 in 0 W/m2
22:13 35.1 °F 32.4 °F 30.27 in North 2.0 mph 5.0 mph 90 % 0.00 in 0 W/m2
22:18 35.1 °F 32.4 °F 30.27 in NNW 4.0 mph 8.0 mph 90 % 0.00 in 0 W/m2
22:23 34.9 °F 32.2 °F 30.28 in NNW 4.0 mph 7.0 mph 90 % 0.00 in 0 W/m2
22:25 34.9 °F 32.2 °F 30.28 in North 3.0 mph 6.0 mph 90 % 0.00 in 0 W/m2
22:30 34.9 °F 32.2 °F 30.28 in NNW 4.0 mph 8.0 mph 90 % 0.00 in 0 W/m2
22:32 34.9 °F 32.5 °F 30.28 in North 4.0 mph 8.0 mph 91 % 0.00 in 0 W/m2
22:37 34.9 °F 32.5 °F 30.28 in NNW 4.0 mph 8.0 mph 91 % 0.00 in 0 W/m2
22:42 34.9 °F 32.5 °F 30.28 in NNW 3.0 mph 8.0 mph 91 % 0.00 in 0 W/m2
22:47 34.9 °F 32.5 °F 30.29 in NNW 2.0 mph 8.0 mph 91 % 0.00 in 0 W/m2
22:52 34.9 °F 32.5 °F 30.29 in NNW 2.0 mph 6.0 mph 91 % 0.00 in 0 W/m2
22:57 34.9 °F 32.5 °F 30.29 in North 4.0 mph 8.0 mph 91 % 0.00 in 0 W/m2
23:02 34.9 °F 32.5 °F 30.29 in North 5.0 mph 8.0 mph 91 % 0.00 in 0 W/m2
23:05 34.9 °F 32.5 °F 30.29 in North 4.0 mph 7.0 mph 91 % 0.00 in 0 W/m2
23:09 34.9 °F 32.5 °F 30.29 in North 4.0 mph 7.0 mph 91 % 0.00 in 0 W/m2
23:14 34.9 °F 32.5 °F 30.30 in North 3.0 mph 8.0 mph 91 % 0.00 in 0 W/m2
23:19 34.9 °F 32.5 °F 30.30 in NNW 5.0 mph 9.0 mph 91 % 0.00 in 0 W/m2
23:20 34.7 °F 32.3 °F 30.30 in NNW 5.0 mph 9.0 mph 91 % 0.00 in 0 W/m2
23:26 34.5 °F 32.2 °F 30.30 in NNW 5.0 mph 7.0 mph 91 % 0.00 in 0 W/m2
23:31 34.5 °F 32.2 °F 30.30 in NNW 5.0 mph 9.0 mph 91 % 0.00 in 0 W/m2
23:32 34.5 °F 32.2 °F 30.30 in NNW 6.0 mph 9.0 mph 91 % 0.00 in 0 W/m2
23:38 34.5 °F 32.2 °F 30.30 in NNW 6.0 mph 8.0 mph 91 % 0.00 in 0 W/m2
23:40 34.5 °F 32.2 °F 30.30 in NNW 5.0 mph 7.0 mph 91 % 0.00 in 0 W/m2
23:45 34.5 °F 32.2 °F 30.30 in NNW 5.0 mph 9.0 mph 91 % 0.00 in 0 W/m2
23:50 34.5 °F 32.2 °F 30.30 in North 6.0 mph 8.0 mph 91 % 0.00 in 0 W/m2
23:54 34.5 °F 32.2 °F 30.30 in NNW 4.0 mph 8.0 mph 91 % 0.00 in 0 W/m2
23:59 34.5 °F 32.2 °F 30.30 in North 4.0 mph 7.0 mph 91 % 0.00 in 0 W/m2
Delerius-Weather
Compliments of Weather Underground - 2.5 mb

Data updates at regular intervals.